Time;durP1;ratioP1;P1;durP2;ratioP2;P2;SDS_P1;SDS_P2;PMS_P1;PMS_P2;Temp;Humidity;BMP_temperature;BMP_pressure;BME280_temperature;BME280_humidity;BME280_pressure;Samples;Min_cycle;Max_cycle;Signal;HPM_P1;HPM_P2
2023/03/02 00:01:51;;;;;;;8.53;6.90;;;7.10;62.00;6.80;96342.00;;;;5034212;28;20284;-81
2023/03/02 00:04:26;;;;;;;9.73;7.33;;;7.10;62.00;6.70;96346.00;;;;5027644;28;20225;-80
2023/03/02 00:07:00;;;;;;;9.47;7.30;;;7.10;62.10;6.70;96349.00;;;;5035415;28;20307;-82
2023/03/02 00:09:29;;;;;;;10.70;7.83;;;7.10;62.10;6.70;96354.00;;;;5031295;28;20640;-80
2023/03/02 00:11:56;;;;;;;8.93;7.07;;;7.10;62.10;6.70;96363.00;;;;5022796;27;20232;-81
2023/03/02 00:14:24;;;;;;;13.07;8.00;;;7.00;62.10;6.70;96358.00;;;;5031758;28;20197;-81
2023/03/02 00:16:51;;;;;;;10.13;7.93;;;7.00;62.20;6.60;96361.00;;;;5027959;28;20225;-82
2023/03/02 00:19:20;;;;;;;12.37;7.83;;;7.00;62.20;6.60;96356.00;;;;5006800;28;20578;-81
2023/03/02 00:21:47;;;;;;;10.73;7.97;;;6.90;62.20;6.60;96358.00;;;;5040293;28;20309;-81
2023/03/02 00:24:14;;;;;;;11.10;7.77;;;6.90;62.20;6.60;96342.00;;;;5044464;28;20198;-81
2023/03/02 00:26:43;;;;;;;14.07;8.80;;;6.90;62.30;6.50;96346.00;;;;5039370;28;20261;-80
2023/03/02 00:29:11;;;;;;;11.93;8.00;;;6.90;62.30;6.50;96344.00;;;;5027804;28;20655;-80
2023/03/02 00:31:38;;;;;;;9.63;7.47;;;6.90;62.40;6.50;96345.00;;;;5025222;28;20238;-80
2023/03/02 00:34:06;;;;;;;11.17;7.70;;;6.80;62.40;6.50;96351.00;;;;5023381;28;20198;-82
2023/03/02 00:36:35;;;;;;;13.30;8.57;;;6.80;62.50;6.50;96339.00;;;;5033588;28;20201;-81
2023/03/02 00:39:03;;;;;;;11.93;8.37;;;6.80;62.60;6.40;96344.00;;;;5051679;28;20235;-81
2023/03/02 00:41:31;;;;;;;11.20;8.00;;;6.80;62.60;6.40;96343.00;;;;5025876;28;20217;-80
2023/03/02 00:43:58;;;;;;;10.37;8.17;;;6.80;62.60;6.40;96355.00;;;;5030827;28;20297;-81
2023/03/02 00:46:27;;;;;;;10.70;7.47;;;6.80;62.60;6.40;96350.00;;;;5031800;28;20248;-81
2023/03/02 00:48:54;;;;;;;9.93;7.73;;;6.70;62.60;6.40;96348.00;;;;5031311;28;20221;-81
2023/03/02 00:51:22;;;;;;;11.40;8.07;;;6.70;62.80;6.40;96345.00;;;;5018141;28;20919;-81
2023/03/02 00:53:50;;;;;;;12.23;7.47;;;6.70;62.90;6.40;96345.00;;;;5032430;28;20279;-80
2023/03/02 00:56:18;;;;;;;11.70;8.33;;;6.70;62.90;6.40;96339.00;;;;5046384;28;20202;-80
2023/03/02 00:58:46;;;;;;;11.43;7.93;;;6.70;62.80;6.40;96344.00;;;;5029539;28;20628;-80
2023/03/02 01:01:14;;;;;;;8.80;7.63;;;6.70;62.80;6.30;96336.00;;;;5020920;28;20293;-80
2023/03/02 01:03:41;;;;;;;9.83;7.50;;;6.60;62.80;6.30;96330.00;;;;5034039;28;20543;-80
2023/03/02 01:06:16;;;;;;;11.10;8.00;;;6.60;62.90;6.30;96334.00;;;;5039874;28;20298;-81
2023/03/02 01:08:43;;;;;;;10.87;7.83;;;6.60;62.90;6.20;96328.00;;;;5025024;28;20255;-80
2023/03/02 01:11:19;;;;;;;9.50;7.83;;;6.60;62.90;6.20;96320.00;;;;5031980;28;20271;-81
2023/03/02 01:13:49;;;;;;;12.83;8.27;;;6.60;63.00;6.20;96325.00;;;;5029646;28;20450;-81
2023/03/02 01:16:16;;;;;;;12.00;8.20;;;6.50;62.90;6.20;96329.00;;;;5016695;28;20246;-81
2023/03/02 01:18:44;;;;;;;12.90;8.13;;;6.50;63.00;6.10;96323.00;;;;5034884;28;20723;-80
2023/03/02 01:21:15;;;;;;;9.30;6.80;;;6.50;63.10;6.10;96311.00;;;;5034573;28;20228;-80
2023/03/02 01:23:42;;;;;;;10.63;7.87;;;6.50;63.20;6.10;96311.00;;;;5020522;28;20258;-80
2023/03/02 01:26:10;;;;;;;11.97;7.53;;;6.50;63.20;6.10;96312.00;;;;5032843;28;20202;-79
2023/03/02 01:28:39;;;;;;;10.87;7.73;;;6.40;63.30;6.10;96301.00;;;;5035171;28;20225;-80
2023/03/02 01:31:07;;;;;;;12.70;8.27;;;6.50;63.40;6.10;96301.00;;;;5025616;28;20260;-81
2023/03/02 01:33:34;;;;;;;11.57;8.07;;;6.40;63.40;6.10;96305.00;;;;5040819;28;20204;-79
2023/03/02 01:36:01;;;;;;;10.60;7.70;;;6.40;63.50;6.10;96307.00;;;;5034302;28;20351;-81
2023/03/02 01:38:29;;;;;;;11.83;8.07;;;6.40;63.50;6.10;96300.00;;;;5031596;28;20647;-81
2023/03/02 01:40:56;;;;;;;11.77;7.80;;;6.40;63.60;6.00;96305.00;;;;5036506;28;20217;-80
2023/03/02 01:43:24;;;;;;;9.63;7.53;;;6.40;63.60;6.00;96292.00;;;;5026462;28;20296;-79
2023/03/02 01:45:57;;;;;;;9.90;7.43;;;6.40;63.70;6.00;96280.00;;;;5033031;28;20200;-80
2023/03/02 01:48:31;;;;;;;9.60;7.50;;;6.40;63.70;6.00;96284.00;;;;5039916;28;20316;-81
2023/03/02 01:51:01;;;;;;;9.53;7.43;;;6.40;63.80;6.00;96283.00;;;;5032625;28;20212;-81
2023/03/02 01:53:32;;;;;;;11.37;7.30;;;6.30;63.80;6.00;96284.00;;;;5020727;28;20204;-80
2023/03/02 01:56:04;;;;;;;10.00;7.80;;;6.30;63.90;6.00;96278.00;;;;5033160;28;20276;-81
2023/03/02 01:58:36;;;;;;;11.33;7.77;;;6.30;63.90;6.00;96273.00;;;;5036702;28;20685;-81
2023/03/02 02:01:14;;;;;;;11.80;7.17;;;6.30;63.90;5.90;96272.00;;;;5036536;28;20221;-81
2023/03/02 02:03:43;;;;;;;10.77;7.03;;;6.30;63.90;5.90;96273.00;;;;5016903;28;20277;-80
2023/03/02 02:06:20;;;;;;;10.50;7.40;;;6.30;64.00;5.90;96277.00;;;;5042762;28;20260;-81
2023/03/02 02:08:49;;;;;;;10.47;7.60;;;6.30;64.10;6.00;96266.00;;;;5005020;28;20225;-80
2023/03/02 02:11:17;;;;;;;10.03;7.53;;;6.30;64.10;6.00;96269.00;;;;5028192;28;20230;-81
2023/03/02 02:13:45;;;;;;;9.13;7.10;;;6.30;64.10;5.90;96267.00;;;;5021813;28;20210;-78
2023/03/02 02:16:15;;;;;;;10.30;7.27;;;6.30;64.20;6.00;96271.00;;;;5038869;28;20220;-81
2023/03/02 02:18:45;;;;;;;11.97;7.90;;;6.30;64.30;5.90;96261.00;;;;5026525;28;20201;-81
2023/03/02 02:21:13;;;;;;;8.63;7.10;;;6.30;64.30;5.90;96263.00;;;;5038769;28;20223;-80
2023/03/02 02:23:52;;;;;;;11.93;6.97;;;6.30;64.40;5.90;96261.00;;;;5017003;28;20224;-81
2023/03/02 02:26:40;;;;;;;9.70;6.73;;;6.30;64.40;5.90;96258.00;;;;5032513;28;20265;-79
2023/03/02 02:29:17;;;;;;;11.97;7.53;;;6.30;64.50;5.90;96248.00;;;;5031935;28;20715;-79
2023/03/02 02:31:51;;;;;;;8.83;7.27;;;6.30;64.40;5.90;96248.00;;;;5027917;28;20224;-80
2023/03/02 02:34:27;;;;;;;11.17;7.57;;;6.30;64.50;5.90;96246.00;;;;5040357;28;20194;-80
2023/03/02 02:37:04;;;;;;;11.30;7.67;;;6.30;64.50;5.90;96249.00;;;;5036770;28;20577;-80
2023/03/02 02:39:38;;;;;;;10.40;7.30;;;6.30;64.50;5.90;96253.00;;;;5036410;28;20245;-79
2023/03/02 02:42:14;;;;;;;8.50;6.80;;;6.30;64.50;5.90;96251.00;;;;5019240;28;20221;-79
2023/03/02 02:44:42;;;;;;;8.67;7.10;;;6.30;64.60;5.90;96248.00;;;;5034199;28;20209;-80
2023/03/02 02:47:19;;;;;;;10.10;7.33;;;6.30;64.60;5.90;96244.00;;;;5014749;28;20201;-79
2023/03/02 02:49:52;;;;;;;12.27;7.43;;;6.30;64.80;5.90;96243.00;;;;5027756;28;20224;-80
2023/03/02 02:52:24;;;;;;;8.90;6.70;;;6.20;64.70;5.90;96237.00;;;;5032055;28;20256;-80
2023/03/02 02:54:58;;;;;;;9.57;7.57;;;6.20;64.70;5.90;96238.00;;;;5030185;28;20228;-81
2023/03/02 02:57:30;;;;;;;9.47;6.77;;;6.20;64.80;5.90;96243.00;;;;5051935;28;20713;-78
2023/03/02 03:00:01;;;;;;;9.20;6.33;;;6.20;64.90;5.90;96243.00;;;;5049361;28;20202;-80
2023/03/02 03:02:33;;;;;;;10.20;7.03;;;6.20;65.00;5.90;96239.00;;;;5045258;28;20252;-80
2023/03/02 03:05:02;;;;;;;9.50;6.73;;;6.20;65.00;5.90;96232.00;;;;5042511;28;20202;-80
2023/03/02 03:07:33;;;;;;;10.07;7.33;;;6.20;65.00;5.90;96231.00;;;;5052697;27;20196;-80
2023/03/02 03:10:08;;;;;;;10.13;7.73;;;6.20;65.10;5.90;96242.00;;;;5047162;28;20189;-79
2023/03/02 03:12:40;;;;;;;9.70;7.43;;;6.20;65.20;5.90;96233.00;;;;5051033;28;20200;-78
2023/03/02 03:15:09;;;;;;;8.57;6.40;;;6.30;65.30;5.90;96237.00;;;;5052951;28;20194;-79
2023/03/02 03:17:37;;;;;;;9.93;7.23;;;6.30;65.30;6.00;96231.00;;;;5053268;28;20232;-79
2023/03/02 03:20:08;;;;;;;8.30;7.07;;;6.30;65.30;6.00;96235.00;;;;5041589;28;20236;-81
2023/03/02 03:22:37;;;;;;;9.37;7.17;;;6.30;65.40;6.00;96228.00;;;;5030814;27;20694;-79
2023/03/02 03:25:06;;;;;;;9.73;7.53;;;6.30;65.40;6.00;96237.00;;;;5035626;28;20283;-80
2023/03/02 03:27:34;;;;;;;10.40;7.20;;;6.30;65.40;6.00;96232.00;;;;5032944;28;20205;-81
2023/03/02 03:30:03;;;;;;;9.00;7.13;;;6.30;66.10;6.00;96223.00;;;;5029754;28;20292;-81
2023/03/02 03:32:34;;;;;;;8.53;6.97;;;6.30;65.40;6.00;96221.00;;;;5011904;28;20251;-81
2023/03/02 03:35:02;;;;;;;8.30;6.90;;;6.30;65.30;6.00;96221.00;;;;5032374;28;20197;-81
2023/03/02 03:37:30;;;;;;;7.90;6.80;;;6.30;65.40;6.00;96220.00;;;;5029251;28;20201;-80
2023/03/02 03:39:57;;;;;;;9.50;6.83;;;6.30;65.40;5.90;96220.00;;;;5031105;28;20636;-80
2023/03/02 03:42:24;;;;;;;10.03;7.47;;;6.30;65.40;5.90;96215.00;;;;5035414;28;20217;-80
2023/03/02 03:44:52;;;;;;;10.33;7.23;;;6.30;65.50;5.90;96219.00;;;;5037824;28;20289;-80
2023/03/02 03:47:21;;;;;;;8.77;7.03;;;6.30;65.50;5.90;96219.00;;;;5026017;28;20815;-80
2023/03/02 03:49:48;;;;;;;8.93;6.87;;;6.30;65.60;5.90;96217.00;;;;5011141;28;20318;-80
2023/03/02 03:52:16;;;;;;;8.50;7.13;;;6.20;65.60;5.90;96233.00;;;;5020237;28;20254;-81
2023/03/02 03:54:43;;;;;;;8.23;6.47;;;6.20;65.70;5.90;96213.00;;;;5020325;28;20580;-80
2023/03/02 03:57:10;;;;;;;8.83;6.57;;;6.20;65.70;5.90;96221.00;;;;5032983;28;20209;-81
2023/03/02 03:59:38;;;;;;;9.50;6.80;;;6.20;65.70;5.90;96221.00;;;;5030017;28;20197;-81
2023/03/02 04:02:05;;;;;;;8.10;5.77;;;6.20;65.70;5.90;96217.00;;;;5019729;28;20661;-81
2023/03/02 04:04:36;;;;;;;7.60;6.47;;;6.20;65.80;5.90;96219.00;;;;5021409;28;20202;-79
2023/03/02 04:07:03;;;;;;;7.77;6.20;;;6.30;65.90;5.90;96217.00;;;;5019863;28;20201;-81
2023/03/02 04:09:36;;;;;;;9.47;6.50;;;6.20;65.80;5.90;96217.00;;;;5031923;28;20308;-80
2023/03/02 04:12:07;;;;;;;9.03;6.50;;;6.20;65.80;5.90;96219.00;;;;5022332;28;20233;-79
2023/03/02 04:14:34;;;;;;;8.70;6.27;;;6.20;65.80;5.90;96220.00;;;;5019807;28;20250;-81
2023/03/02 04:17:04;;;;;;;9.07;6.13;;;6.20;65.80;5.90;96216.00;;;;5040421;28;20203;-80
2023/03/02 04:19:31;;;;;;;7.90;6.50;;;6.20;65.90;5.90;96211.00;;;;5033712;28;20202;-81
2023/03/02 04:22:02;;;;;;;9.47;6.27;;;6.20;65.90;5.90;96217.00;;;;5025723;28;20736;-81
2023/03/02 04:24:30;;;;;;;9.27;6.70;;;6.20;65.90;5.90;96221.00;;;;5028615;28;20197;-80
2023/03/02 04:26:57;;;;;;;9.97;6.60;;;6.20;65.90;5.90;96216.00;;;;5014259;28;20218;-81
2023/03/02 04:29:25;;;;;;;8.03;6.60;;;6.20;66.00;5.90;96217.00;;;;5031454;28;20225;-80
2023/03/02 04:31:53;;;;;;;7.73;6.33;;;6.20;66.00;5.90;96218.00;;;;5020367;28;20249;-80
2023/03/02 04:34:22;;;;;;;7.37;5.70;;;6.20;66.00;5.90;96213.00;;;;5022025;28;20277;-81
2023/03/02 04:36:49;;;;;;;6.90;6.03;;;6.20;66.00;5.90;96209.00;;;;5018250;28;20210;-80
2023/03/02 04:39:21;;;;;;;7.53;6.17;;;6.20;66.00;5.90;96203.00;;;;5023857;28;20293;-81
2023/03/02 04:41:51;;;;;;;8.70;6.63;;;6.20;66.10;5.90;96219.00;;;;5019609;28;20298;-80
2023/03/02 04:44:20;;;;;;;9.47;6.63;;;6.20;66.10;5.90;96213.00;;;;5023230;28;20210;-81
2023/03/02 04:46:48;;;;;;;9.90;6.57;;;6.20;66.10;5.90;96212.00;;;;5022521;28;20288;-81
2023/03/02 04:49:18;;;;;;;10.53;7.10;;;6.20;66.10;5.90;96212.00;;;;5023673;28;20232;-80
2023/03/02 04:51:49;;;;;;;9.67;6.70;;;6.20;66.10;5.90;96215.00;;;;5021111;28;20295;-80
2023/03/02 04:54:21;;;;;;;7.53;6.47;;;6.20;66.10;5.90;96209.00;;;;5021974;28;20285;-80
2023/03/02 04:56:50;;;;;;;9.13;6.57;;;6.20;66.20;5.90;96210.00;;;;5029947;28;20201;-80
2023/03/02 04:59:19;;;;;;;9.73;6.97;;;6.20;66.20;5.90;96212.00;;;;5020915;28;20194;-81
2023/03/02 05:01:47;;;;;;;7.67;6.30;;;6.20;66.20;5.90;96213.00;;;;5018540;28;20224;-80
2023/03/02 05:04:16;;;;;;;8.70;6.70;;;6.20;66.20;5.90;96217.00;;;;5028026;28;20206;-79
2023/03/02 05:06:43;;;;;;;8.53;6.17;;;6.20;66.30;5.90;96227.00;;;;5029850;28;20574;-81
2023/03/02 05:09:11;;;;;;;11.53;6.80;;;6.20;66.20;5.90;96212.00;;;;5027252;28;20586;-81
2023/03/02 05:11:41;;;;;;;10.23;6.80;;;6.20;66.30;5.90;96206.00;;;;5011806;28;20789;-79
2023/03/02 05:14:11;;;;;;;9.07;6.03;;;6.20;66.20;5.90;96199.00;;;;5026885;27;20201;-81
2023/03/02 05:16:41;;;;;;;9.17;6.57;;;6.20;66.20;5.80;96200.00;;;;5050394;28;20204;-78
2023/03/02 05:19:11;;;;;;;10.40;6.93;;;6.20;66.30;5.80;96200.00;;;;5027511;28;20209;-81
2023/03/02 05:21:39;;;;;;;11.60;6.90;;;6.20;66.30;5.80;96199.00;;;;5005908;28;20214;-80
2023/03/02 05:24:07;;;;;;;9.30;6.60;;;6.20;66.40;5.80;96196.00;;;;5035918;28;20203;-80
2023/03/02 05:26:36;;;;;;;10.33;6.83;;;6.20;66.40;5.80;96201.00;;;;5035682;28;20280;-81
2023/03/02 05:29:05;;;;;;;7.83;6.03;;;6.10;66.30;5.80;96203.00;;;;5030668;28;20225;-79
2023/03/02 05:31:37;;;;;;;7.20;6.20;;;6.10;66.40;5.80;96201.00;;;;5032277;28;20216;-80
2023/03/02 05:34:08;;;;;;;9.73;6.40;;;6.20;66.40;5.80;96203.00;;;;5003177;28;20202;-80
2023/03/02 05:36:36;;;;;;;9.00;6.17;;;6.10;66.40;5.80;96205.00;;;;5033342;28;20233;-79
2023/03/02 05:39:07;;;;;;;10.17;6.87;;;6.20;66.60;5.80;96213.00;;;;5036334;28;20201;-81
2023/03/02 05:41:35;;;;;;;7.40;6.63;;;6.20;66.50;5.80;96207.00;;;;5030582;28;20222;-81
2023/03/02 05:44:04;;;;;;;8.10;6.40;;;6.20;66.40;5.80;96211.00;;;;5033168;28;20289;-81
2023/03/02 05:46:32;;;;;;;9.20;6.67;;;6.10;66.40;5.80;96208.00;;;;5011896;28;20189;-79
2023/03/02 05:49:00;;;;;;;8.93;6.60;;;6.20;66.40;5.80;96213.00;;;;5021706;28;20270;-80
2023/03/02 05:51:28;;;;;;;9.47;6.70;;;6.10;66.40;5.80;96217.00;;;;5034682;28;20777;-81
2023/03/02 05:53:55;;;;;;;8.83;6.47;;;6.10;66.40;5.80;96221.00;;;;5033089;28;20214;-81
2023/03/02 05:56:22;;;;;;;10.33;6.23;;;6.10;66.50;5.80;96219.00;;;;5037437;28;20197;-81
2023/03/02 05:58:50;;;;;;;8.93;6.77;;;6.10;66.50;5.80;96215.00;;;;5038330;28;20197;-79
2023/03/02 06:01:19;;;;;;;9.73;7.10;;;6.10;66.50;5.80;96215.00;;;;5045520;28;20301;-81
2023/03/02 06:03:47;;;;;;;8.73;6.23;;;6.10;66.60;5.80;96213.00;;;;5034908;28;20221;-85
2023/03/02 06:06:14;;;;;;;9.77;6.33;;;6.10;66.60;5.80;96211.00;;;;5024991;28;20197;-85
2023/03/02 06:08:44;;;;;;;8.53;6.37;;;6.10;66.70;5.90;96209.00;;;;5034312;28;20693;-83
2023/03/02 06:11:12;;;;;;;10.47;6.40;;;6.10;66.70;5.90;96220.00;;;;5044128;28;20260;-82
2023/03/02 06:13:40;;;;;;;8.37;6.63;;;6.10;66.80;6.00;96219.00;;;;5021444;28;20210;-83
2023/03/02 06:16:08;;;;;;;9.00;7.17;;;6.20;66.90;6.00;96218.00;;;;5044728;28;20572;-82
2023/03/02 06:18:38;;;;;;;8.20;6.40;;;6.20;67.00;6.10;96220.00;;;;5041344;28;20201;-82
2023/03/02 06:21:06;;;;;;;8.77;6.70;;;6.20;67.00;6.10;96220.00;;;;5056619;28;20247;-81
2023/03/02 06:23:33;;;;;;;8.50;6.93;;;6.20;67.00;6.10;96223.00;;;;5053243;27;20265;-81
2023/03/02 06:26:07;;;;;;;7.80;6.43;;;6.30;67.00;6.20;96229.00;;;;5036975;28;20258;-82
2023/03/02 06:28:35;;;;;;;10.27;6.90;;;6.30;67.10;6.20;96230.00;;;;5026677;28;20226;-82
2023/03/02 06:31:02;;;;;;;7.97;6.63;;;6.30;67.80;6.30;96233.00;;;;5034983;28;20268;-81
2023/03/02 06:33:30;;;;;;;10.27;6.27;;;6.40;68.00;6.30;96232.00;;;;5042859;27;20225;-82
2023/03/02 06:35:59;;;;;;;8.63;6.57;;;6.40;67.20;6.30;96235.00;;;;5049463;28;20201;-83
2023/03/02 06:38:26;;;;;;;10.30;6.63;;;6.40;67.10;6.40;96237.00;;;;5038308;28;20604;-81
2023/03/02 06:40:54;;;;;;;8.23;6.50;;;6.40;67.10;6.40;96236.00;;;;5036683;28;20275;-82
2023/03/02 06:43:21;;;;;;;9.10;7.07;;;6.50;67.20;6.40;96232.00;;;;5040535;28;20219;-82
2023/03/02 06:45:49;;;;;;;9.43;6.83;;;6.50;67.20;6.40;96240.00;;;;5028636;28;20240;-84
2023/03/02 06:48:17;;;;;;;9.43;6.33;;;6.50;67.30;6.50;96235.00;;;;5016796;28;20205;-80
2023/03/02 06:50:45;;;;;;;9.03;5.80;;;6.50;67.30;6.50;96235.00;;;;5017559;28;20306;-83
2023/03/02 06:53:14;;;;;;;8.57;6.63;;;6.60;67.30;6.50;96236.00;;;;5037055;28;20229;-84
2023/03/02 06:55:41;;;;;;;9.50;6.80;;;6.60;67.30;6.50;96240.00;;;;5025752;27;20332;-83
2023/03/02 06:58:11;;;;;;;8.50;6.27;;;6.60;67.40;6.60;96234.00;;;;5023741;28;20233;-82
2023/03/02 07:00:39;;;;;;;8.47;6.33;;;6.60;67.50;6.60;96248.00;;;;5028802;28;20217;-82
2023/03/02 07:03:06;;;;;;;8.77;6.47;;;6.60;67.50;6.70;96247.00;;;;5026939;28;20297;-84
2023/03/02 07:05:34;;;;;;;10.33;7.13;;;6.70;67.70;6.70;96247.00;;;;5020576;28;20198;-83
2023/03/02 07:08:02;;;;;;;8.90;6.33;;;6.80;67.60;6.70;96250.00;;;;5030845;28;20202;-83
2023/03/02 07:10:32;;;;;;;11.00;6.53;;;6.80;67.70;6.80;96244.00;;;;5020971;28;20226;-82
2023/03/02 07:12:59;;;;;;;8.37;6.43;;;6.80;67.70;6.90;96250.00;;;;5016746;28;20189;-83
2023/03/02 07:15:27;;;;;;;7.80;6.67;;;6.90;67.80;6.90;96248.00;;;;5019092;28;20198;-81
2023/03/02 07:17:54;;;;;;;8.87;6.47;;;6.90;67.80;7.00;96250.00;;;;5033284;27;20225;-82
2023/03/02 07:20:22;;;;;;;9.67;6.43;;;7.00;67.70;7.00;96245.00;;;;5034766;28;20228;-84
2023/03/02 07:22:49;;;;;;;8.83;5.97;;;7.00;67.70;7.10;96258.00;;;;5022136;28;20267;-81
2023/03/02 07:25:17;;;;;;;9.90;6.60;;;7.10;67.90;7.10;96252.00;;;;5032125;28;20202;-83
2023/03/02 07:27:46;;;;;;;8.53;6.20;;;7.10;67.90;7.20;96255.00;;;;5027395;28;20251;-84
2023/03/02 07:30:14;;;;;;;9.37;6.63;;;7.20;68.00;7.30;96261.00;;;;5027494;28;20230;-84
2023/03/02 07:32:41;;;;;;;8.60;6.03;;;7.20;67.90;7.30;96260.00;;;;5034976;28;20312;-84
2023/03/02 07:35:10;;;;;;;8.10;6.00;;;7.30;67.90;7.40;96263.00;;;;5028608;28;20658;-83
2023/03/02 07:37:37;;;;;;;8.40;6.80;;;7.40;67.90;7.50;96265.00;;;;5037675;28;20636;-84
2023/03/02 07:40:06;;;;;;;9.23;6.00;;;7.50;67.90;7.50;96265.00;;;;5005315;28;20222;-83
2023/03/02 07:42:34;;;;;;;8.20;6.20;;;7.50;67.80;7.60;96265.00;;;;5018828;28;20222;-83
2023/03/02 07:45:04;;;;;;;9.03;6.50;;;7.60;67.90;7.70;96268.00;;;;5019445;28;21128;-85
2023/03/02 07:47:31;;;;;;;7.90;5.97;;;7.60;67.80;7.80;96275.00;;;;5025206;28;20209;-86
2023/03/02 07:49:59;;;;;;;9.53;6.37;;;7.70;67.80;7.80;96268.00;;;;5025713;28;20315;-85
2023/03/02 07:52:28;;;;;;;7.50;5.27;;;7.70;67.70;7.90;96275.00;;;;5030793;28;20223;-84
2023/03/02 07:54:56;;;;;;;11.17;6.73;;;7.80;67.70;8.00;96270.00;;;;5009476;28;20208;-83
2023/03/02 07:57:23;;;;;;;9.50;6.50;;;7.90;67.70;8.10;96275.00;;;;5024878;28;20202;-85
2023/03/02 07:59:51;;;;;;;7.80;6.40;;;8.00;67.70;8.10;96271.00;;;;5014808;28;20634;-86
2023/03/02 08:02:20;;;;;;;7.60;5.90;;;8.10;67.70;8.20;96272.00;;;;5016301;28;20300;-85
2023/03/02 08:04:47;;;;;;;9.03;6.23;;;8.20;67.70;8.40;96279.00;;;;5028715;28;20200;-85
2023/03/02 08:07:15;;;;;;;7.40;6.40;;;8.30;67.90;8.50;96281.00;;;;5013724;28;20194;-85
2023/03/02 08:09:42;;;;;;;7.57;5.80;;;8.40;67.90;8.60;96274.00;;;;5010714;28;20383;-86
2023/03/02 08:12:10;;;;;;;8.87;6.53;;;8.50;67.80;8.80;96280.00;;;;5082168;27;20316;-85
2023/03/02 08:14:38;;;;;;;10.77;6.63;;;8.60;67.80;8.90;96281.00;;;;5027072;28;20628;-86
2023/03/02 08:17:06;;;;;;;7.97;6.47;;;8.70;67.80;9.10;96288.00;;;;5019404;28;20736;-85
2023/03/02 08:19:36;;;;;;;7.50;5.90;;;8.80;67.80;9.20;96287.00;;;;5021302;28;20193;-86
2023/03/02 08:22:03;;;;;;;9.17;6.13;;;9.00;67.60;9.40;96287.00;;;;5016534;28;20729;-86
2023/03/02 08:24:30;;;;;;;7.83;6.20;;;9.10;67.50;9.50;96288.00;;;;5025637;28;20283;-85
2023/03/02 08:27:01;;;;;;;10.33;6.30;;;9.20;67.40;9.70;96287.00;;;;5027740;28;20712;-86
2023/03/02 08:29:29;;;;;;;7.10;5.47;;;9.40;67.30;9.90;96295.00;;;;5023211;28;20225;-85
2023/03/02 08:32:00;;;;;;;8.60;5.67;;;9.50;67.30;10.00;96290.00;;;;5028087;28;20304;-85
2023/03/02 08:34:28;;;;;;;8.33;5.87;;;9.70;68.00;10.20;96287.00;;;;5026699;28;20237;-83
2023/03/02 08:36:56;;;;;;;8.77;6.13;;;9.80;67.00;10.40;96284.00;;;;5026931;28;20240;-86
2023/03/02 08:39:24;;;;;;;10.03;6.83;;;10.00;66.80;10.60;96279.00;;;;5026966;28;20283;-86
2023/03/02 08:41:51;;;;;;;8.07;6.43;;;10.10;66.70;10.70;96289.00;;;;5019681;28;20309;-84
2023/03/02 08:44:19;;;;;;;8.00;6.70;;;10.30;66.50;10.90;96289.00;;;;5012442;28;20198;-85
2023/03/02 08:46:47;;;;;;;7.00;6.30;;;10.50;66.30;11.10;96296.00;;;;5057491;28;20199;-84
2023/03/02 08:49:15;;;;;;;6.70;5.60;;;10.60;65.80;11.20;96297.00;;;;4996279;28;20221;-84
2023/03/02 08:51:42;;;;;;;7.80;5.70;;;10.80;65.70;11.40;96291.00;;;;5027765;28;20780;-82
2023/03/02 08:54:12;;;;;;;8.53;6.60;;;10.90;65.70;11.50;96296.00;;;;5030292;28;20201;-83
2023/03/02 08:56:43;;;;;;;9.00;6.40;;;11.00;65.30;11.70;96297.00;;;;5024884;27;20229;-84
2023/03/02 08:59:13;;;;;;;7.60;5.83;;;11.20;65.10;11.90;96290.00;;;;5030976;28;20201;-84
2023/03/02 09:01:42;;;;;;;10.60;6.50;;;11.40;64.90;12.00;96296.00;;;;5030052;28;20698;-87
2023/03/02 09:04:11;;;;;;;8.37;5.73;;;11.50;64.80;12.20;96291.00;;;;5030127;28;20233;-86
2023/03/02 09:06:41;;;;;;;9.37;7.20;;;11.60;64.60;12.40;96306.00;;;;5031620;28;20202;-86
2023/03/02 09:09:13;;;;;;;7.53;6.30;;;11.80;64.20;12.50;96290.00;;;;5028342;28;20197;-85
2023/03/02 09:11:44;;;;;;;8.27;6.10;;;11.90;64.00;12.70;96293.00;;;;5032566;28;20313;-85
2023/03/02 09:14:11;;;;;;;9.17;6.43;;;12.10;63.60;12.80;96301.00;;;;5023415;28;20205;-86
2023/03/02 09:16:38;;;;;;;8.67;6.83;;;12.30;63.90;13.00;96307.00;;;;5025780;28;20277;-84
2023/03/02 09:19:06;;;;;;;9.10;6.40;;;12.40;63.60;13.20;96307.00;;;;5035780;28;20285;-85
2023/03/02 09:21:35;;;;;;;8.73;6.10;;;12.50;63.30;13.30;96306.00;;;;5030349;28;20298;-86
2023/03/02 09:24:04;;;;;;;8.03;6.37;;;12.70;63.00;13.50;96306.00;;;;5023430;28;20225;-84
2023/03/02 09:26:32;;;;;;;9.43;6.50;;;12.80;62.70;13.60;96305.00;;;;5030933;28;20206;-84
2023/03/02 09:29:00;;;;;;;7.63;6.17;;;12.90;62.30;13.80;96304.00;;;;5023787;28;20233;-84
2023/03/02 09:31:27;;;;;;;7.50;6.00;;;13.10;62.30;13.90;96310.00;;;;5030632;28;20681;-84
2023/03/02 09:33:55;;;;;;;8.30;6.33;;;13.20;62.00;14.10;96317.00;;;;5027879;28;20198;-84
2023/03/02 09:36:25;;;;;;;9.20;6.53;;;13.40;62.00;14.20;96313.00;;;;5026180;28;20247;-84
2023/03/02 09:38:53;;;;;;;7.13;5.90;;;13.50;61.50;14.40;96317.00;;;;5035551;28;20202;-82
2023/03/02 09:41:59;;;;;;;9.07;6.90;;;13.70;61.40;14.60;96320.00;;;;5031987;28;20906;-86
2023/03/02 09:45:03;;;;;;;6.37;5.57;;;13.80;60.30;14.80;96322.00;;;;5030373;28;20224;-85
2023/03/02 09:47:43;;;;;;;9.07;6.97;;;14.10;60.40;15.00;96319.00;;;;5029719;28;20301;-85
2023/03/02 09:50:30;;;;;;;8.13;6.00;;;14.30;60.50;15.20;96317.00;;;;5022244;28;20228;-85
2023/03/02 09:53:29;;;;;;;9.60;6.20;;;14.40;60.00;15.40;96323.00;;;;5031430;28;20202;-84
2023/03/02 09:56:00;;;;;;;8.30;6.07;;;14.60;59.80;15.60;96329.00;;;;5020424;28;20627;-84
2023/03/02 09:58:38;;;;;;;9.20;6.93;;;14.70;60.10;15.80;96334.00;;;;5026378;28;20258;-86
2023/03/02 10:01:15;;;;;;;9.57;6.93;;;14.90;59.30;16.00;96332.00;;;;5030309;28;20225;-86
2023/03/02 10:03:55;;;;;;;9.17;6.73;;;15.00;59.30;16.20;96336.00;;;;5033162;28;20197;-83
2023/03/02 10:06:22;;;;;;;8.87;6.70;;;15.20;59.50;16.50;96331.00;;;;5026240;28;20257;-84
2023/03/02 10:08:50;;;;;;;9.17;6.57;;;15.40;60.10;16.60;96339.00;;;;5030185;28;20286;-85
2023/03/02 10:11:28;;;;;;;8.43;6.03;;;15.60;59.70;16.80;96333.00;;;;5033820;28;20686;-84
2023/03/02 10:14:06;;;;;;;8.30;6.43;;;15.90;59.70;16.90;96325.00;;;;5032482;28;20194;-83
2023/03/02 10:16:44;;;;;;;7.30;6.03;;;16.10;59.10;17.10;96332.00;;;;5035086;28;20275;-84
2023/03/02 10:19:23;;;;;;;7.90;6.07;;;16.30;59.00;17.20;96331.00;;;;5031674;28;20254;-85
2023/03/02 10:22:00;;;;;;;9.30;6.27;;;16.50;58.50;17.30;96327.00;;;;5029326;28;20698;-83
2023/03/02 10:24:39;;;;;;;7.10;5.57;;;16.70;58.00;17.40;96330.00;;;;5027788;28;20197;-84
2023/03/02 10:27:19;;;;;;;7.87;5.70;;;16.80;57.70;17.50;96332.00;;;;5040707;28;20197;-85
2023/03/02 10:29:58;;;;;;;8.00;6.43;;;17.00;57.60;17.60;96330.00;;;;5035100;28;20205;-86
2023/03/02 10:32:30;;;;;;;7.20;5.87;;;17.20;57.10;17.70;96329.00;;;;5022270;28;20309;-86
2023/03/02 10:35:01;;;;;;;7.53;5.90;;;17.30;57.10;17.80;96331.00;;;;5030522;28;20235;-84
2023/03/02 10:37:31;;;;;;;7.13;6.07;;;17.40;56.70;17.80;96328.00;;;;5033827;28;20233;-84
2023/03/02 10:39:58;;;;;;;8.03;5.90;;;17.40;56.60;17.90;96326.00;;;;5025725;28;20194;-83
2023/03/02 10:42:35;;;;;;;7.20;6.00;;;17.50;56.70;18.00;96333.00;;;;5006054;28;20316;-82
2023/03/02 10:45:23;;;;;;;6.57;5.67;;;17.60;56.40;18.10;96328.00;;;;5038662;28;20213;-82
2023/03/02 10:48:01;;;;;;;9.37;5.80;;;17.80;56.10;18.20;96331.00;;;;5019011;28;20229;-83
2023/03/02 10:50:29;;;;;;;9.00;5.30;;;17.90;55.90;18.30;96335.00;;;;5023123;28;20217;-83
2023/03/02 10:52:57;;;;;;;6.63;5.20;;;18.00;56.50;18.40;96331.00;;;;5021607;28;20663;-84
2023/03/02 10:55:25;;;;;;;7.23;5.67;;;18.20;55.90;18.50;96330.00;;;;5020439;28;20250;-83
2023/03/02 10:58:19;;;;;;;5.67;4.77;;;18.30;55.60;18.50;96326.00;;;;5035303;28;20600;-83
2023/03/02 11:00:57;;;;;;;6.53;4.80;;;18.30;54.50;18.60;96330.00;;;;5027941;28;20257;-83
2023/03/02 11:03:25;;;;;;;5.93;5.33;;;18.40;54.70;18.50;96328.00;;;;5027434;28;20211;-81
2023/03/02 11:05:54;;;;;;;6.90;5.80;;;18.40;54.70;18.50;96326.00;;;;5028358;28;20221;-83
2023/03/02 11:08:23;;;;;;;7.00;5.33;;;18.40;54.20;18.50;96329.00;;;;5033828;28;20237;-84
2023/03/02 11:10:57;;;;;;;7.47;5.07;;;18.40;53.90;18.40;96314.00;;;;5021988;28;20226;-85
2023/03/02 11:13:29;;;;;;;5.50;4.90;;;18.40;53.30;18.20;96324.00;;;;5021338;28;20281;-82
2023/03/02 11:16:01;;;;;;;6.50;5.43;;;18.30;53.20;18.10;96317.00;;;;5027218;28;20190;-85
2023/03/02 11:18:37;;;;;;;5.50;4.90;;;18.20;53.20;18.00;96317.00;;;;5026853;28;20280;-85